createdAt,value
2018-12-22T00:00:23.026Z,101153.64
2018-12-22T00:02:51.667Z,101157.16
2018-12-22T00:05:20.471Z,101167.14
2018-12-22T00:07:49.120Z,101172.80
2018-12-22T00:10:17.689Z,101170.81
2018-12-22T00:12:46.288Z,101179.55
2018-12-22T00:15:14.872Z,101178.52
2018-12-22T00:17:43.472Z,101189.48
2018-12-22T00:20:12.023Z,101192.23
2018-12-22T00:22:40.584Z,101208.02
2018-12-22T00:25:09.183Z,101212.01
2018-12-22T00:27:38.846Z,101197.34
2018-12-22T00:30:08.032Z,101204.85
2018-12-22T00:32:36.631Z,101208.36
2018-12-22T00:35:06.000Z,101205.84
2018-12-22T00:37:34.752Z,101202.42
2018-12-22T00:40:03.497Z,101214.16
2018-12-22T00:42:32.080Z,101220.76
2018-12-22T00:45:00.717Z,101226.87
2018-12-22T00:47:29.290Z,101233.48
2018-12-22T00:49:57.926Z,101239.14
2018-12-22T00:52:26.519Z,101244.03
2018-12-22T00:54:55.063Z,101238.42
2018-12-22T00:57:23.665Z,101243.63
2018-12-22T00:59:52.313Z,101241.96
2018-12-22T01:02:20.936Z,101254.15
2018-12-22T01:04:49.575Z,101246.24
2018-12-22T01:07:18.244Z,101245.02
2018-12-22T01:09:46.895Z,101244.94
2018-12-22T01:12:15.525Z,101241.43
2018-12-22T01:14:44.108Z,101246.97
2018-12-22T01:17:12.707Z,101245.13
2018-12-22T01:19:41.315Z,101248.14
2018-12-22T01:22:09.899Z,101258.05
2018-12-22T01:24:38.593Z,101251.07
2018-12-22T01:27:07.294Z,101256.69
2018-12-22T01:29:35.887Z,101263.58
2018-12-22T01:32:04.626Z,101270.50
2018-12-22T01:34:33.223Z,101275.31
2018-12-22T01:37:01.816Z,101270.95
2018-12-22T01:39:30.402Z,101275.19
2018-12-22T01:41:58.988Z,101281.17
2018-12-22T01:44:27.572Z,101279.42
2018-12-22T01:46:56.187Z,101273.75
2018-12-22T01:49:26.535Z,101268.99
2018-12-22T01:51:55.284Z,101283.47
2018-12-22T01:54:23.864Z,101282.28
2018-12-22T01:56:52.437Z,101291.50
2018-12-22T01:59:21.036Z,101291.09
2018-12-22T02:01:49.587Z,101296.39
2018-12-22T02:04:18.179Z,101304.66
2018-12-22T02:06:46.815Z,101304.66
2018-12-22T02:09:15.423Z,101300.34
2018-12-22T02:11:44.050Z,101305.19
2018-12-22T02:14:12.628Z,101303.89
2018-12-22T02:16:41.208Z,101305.56
2018-12-22T02:19:09.794Z,101321.21
2018-12-22T02:21:38.369Z,101325.60
2018-12-22T02:24:06.972Z,101324.30
2018-12-22T02:26:35.560Z,101337.66
2018-12-22T02:29:04.283Z,101332.82
2018-12-22T02:31:32.944Z,101327.61
2018-12-22T02:34:01.597Z,101339.30
2018-12-22T02:36:30.241Z,101338.44
2018-12-22T02:38:58.941Z,101346.67
2018-12-22T02:41:27.555Z,101350.83
2018-12-22T02:43:56.155Z,101348.22
2018-12-22T02:46:24.738Z,101355.59
2018-12-22T02:48:53.323Z,101361.27
2018-12-22T02:51:21.958Z,101363.83
2018-12-22T02:53:50.555Z,101363.34
2018-12-22T02:56:19.295Z,101367.25
2018-12-22T02:58:47.854Z,101367.66
2018-12-22T03:01:16.521Z,101375.56
2018-12-22T03:03:45.151Z,101370.80
2018-12-22T03:06:13.699Z,101375.08
2018-12-22T03:08:42.285Z,101379.48
2018-12-22T03:11:10.860Z,101383.44
2018-12-22T03:13:39.484Z,101383.84
2018-12-22T03:16:08.058Z,101376.91
2018-12-22T03:18:36.958Z,101383.03
2018-12-22T03:21:05.523Z,101380.38
2018-12-22T03:23:34.117Z,101389.05
2018-12-22T03:26:02.713Z,101376.87
2018-12-22T03:28:31.345Z,101388.12
2018-12-22T03:30:59.951Z,101388.93
2018-12-22T03:33:28.568Z,101392.84
2018-12-22T03:35:57.168Z,101397.13
2018-12-22T03:38:25.720Z,101387.62
2018-12-22T03:40:54.325Z,101391.01
2018-12-22T03:43:23.074Z,101388.41
2018-12-22T03:45:51.637Z,101386.65
2018-12-22T03:48:20.235Z,101390.56
2018-12-22T03:50:48.844Z,101405.23
2018-12-22T03:53:17.414Z,101384.36
2018-12-22T03:55:46.171Z,101385.27
2018-12-22T03:58:14.800Z,101383.96
2018-12-22T04:00:43.452Z,101382.66
2018-12-22T04:03:12.081Z,101384.81
2018-12-22T04:05:40.796Z,101388.73
2018-12-22T04:08:09.481Z,101400.39
2018-12-22T04:10:38.092Z,101394.80
2018-12-22T04:13:06.724Z,101395.66
2018-12-22T04:15:35.311Z,101393.95
2018-12-22T04:18:03.888Z,101396.11
2018-12-22T04:20:32.482Z,101399.61
2018-12-22T04:23:01.055Z,101408.38
2018-12-22T04:25:29.676Z,101399.24
2018-12-22T04:27:58.279Z,101401.97
2018-12-22T04:30:26.867Z,101413.30
2018-12-22T04:32:55.451Z,101419.50
2018-12-22T04:35:24.142Z,101423.45
2018-12-22T04:37:52.751Z,101428.34
2018-12-22T04:40:21.347Z,101439.27
2018-12-22T04:42:49.984Z,101438.00
2018-12-22T04:45:18.561Z,101448.88
2018-12-22T04:47:47.205Z,101445.49
2018-12-22T04:50:15.850Z,101449.86
2018-12-22T04:52:44.413Z,101452.13
2018-12-22T04:55:13.011Z,101459.22
2018-12-22T04:57:41.638Z,101462.75
2018-12-22T05:00:11.143Z,101467.19
2018-12-22T05:02:39.725Z,101468.09
2018-12-22T05:05:08.488Z,101464.63
2018-12-22T05:07:39.489Z,101472.97
2018-12-22T05:10:08.710Z,101470.41
2018-12-22T05:12:37.371Z,101477.78
2018-12-22T05:15:06.995Z,101478.23
2018-12-22T05:17:35.594Z,101481.24
2018-12-22T05:20:04.585Z,101488.17
2018-12-22T05:22:33.252Z,101489.47
2018-12-22T05:25:01.854Z,101492.94
2018-12-22T05:27:30.515Z,101494.61
2018-12-22T05:29:59.089Z,101496.77
2018-12-22T05:32:27.688Z,101502.84
2018-12-22T05:34:56.291Z,101503.70
2018-12-22T05:37:24.872Z,101502.84
2018-12-22T05:39:53.531Z,101507.20
2018-12-22T05:42:22.219Z,101511.97
2018-12-22T05:44:50.853Z,101518.05
2018-12-22T05:47:19.451Z,101523.19
2018-12-22T05:49:48.152Z,101522.73
2018-12-22T05:52:16.735Z,101537.53
2018-12-22T05:54:45.389Z,101530.16
2018-12-22T05:57:13.977Z,101544.56
2018-12-22T05:59:42.565Z,101545.87
2018-12-22T06:02:11.195Z,101548.06
2018-12-22T06:04:39.801Z,101543.38
2018-12-22T06:07:08.451Z,101543.89
2018-12-22T06:09:37.083Z,101541.33
2018-12-22T06:12:05.704Z,101546.95
2018-12-22T06:14:34.903Z,101557.42
2018-12-22T06:17:03.752Z,101562.63
2018-12-22T06:19:32.395Z,101565.72
2018-12-22T06:22:01.000Z,101570.45
2018-12-22T06:24:29.656Z,101580.44
2018-12-22T06:26:58.231Z,101589.64
2018-12-22T06:29:26.866Z,101590.53
2018-12-22T06:31:55.503Z,101585.77
2018-12-22T06:34:24.196Z,101587.55
2018-12-22T06:36:52.884Z,101597.98
2018-12-22T06:39:21.613Z,101595.81
2018-12-22T06:41:50.247Z,101596.67
2018-12-22T06:44:18.906Z,101603.56
2018-12-22T06:46:47.518Z,101602.27
2018-12-22T06:49:16.130Z,101607.89
2018-12-22T06:51:44.939Z,101608.27
2018-12-22T06:54:13.585Z,101611.35
2018-12-22T06:56:42.191Z,101627.44
2018-12-22T06:59:10.772Z,101617.02
2018-12-22T07:01:39.448Z,101625.73
2018-12-22T07:04:08.270Z,101634.86
2018-12-22T07:06:36.990Z,101631.91
2018-12-22T07:09:07.129Z,101637.98
2018-12-22T07:11:36.029Z,101636.68
2018-12-22T07:14:04.634Z,101653.22
2018-12-22T07:16:33.289Z,101647.55
2018-12-22T07:19:01.945Z,101654.52
2018-12-22T07:21:30.589Z,101648.82
2018-12-22T07:23:59.222Z,101650.50
2018-12-22T07:26:27.823Z,101655.68
2018-12-22T07:28:56.467Z,101662.12
2018-12-22T07:31:25.118Z,101659.52
2018-12-22T07:33:53.741Z,101690.40
2018-12-22T07:36:22.490Z,101677.09
2018-12-22T07:38:51.307Z,101674.18
2018-12-22T07:48:21.061Z,101687.48
2018-12-22T07:50:49.738Z,101692.43
2018-12-22T07:53:18.387Z,101695.99
2018-12-22T08:10:56.473Z,101727.33
2018-12-22T08:13:25.079Z,101739.91
2018-12-22T08:22:45.643Z,101745.12
2018-12-22T08:25:14.403Z,101747.73
2018-12-22T08:30:23.904Z,101745.91
2018-12-22T08:51:02.749Z,101800.35
2018-12-22T08:53:31.601Z,101807.22
2018-12-22T08:56:00.207Z,101798.03
2018-12-22T08:58:28.875Z,101808.80
2018-12-22T09:01:14.359Z,101810.42
2018-12-22T09:03:43.021Z,101815.57
2018-12-22T09:06:11.964Z,101823.30
2018-12-22T09:08:40.651Z,101826.22
2018-12-22T09:14:40.590Z,101834.33
2018-12-22T09:17:09.486Z,101839.03
2018-12-22T09:19:59.100Z,101846.75
2018-12-22T09:26:37.841Z,101853.97
2018-12-22T09:32:53.065Z,101853.87
2018-12-22T09:36:11.911Z,101870.28
2018-12-22T09:39:06.674Z,101864.17
2018-12-22T09:42:05.292Z,101867.98
2018-12-22T09:44:42.063Z,101855.77
2018-12-22T09:47:23.712Z,101867.86
2018-12-22T09:57:44.124Z,101871.83
2018-12-22T10:49:48.782Z,101935.13
2018-12-22T10:52:39.164Z,101942.86
2018-12-22T11:13:02.594Z,101958.31
2018-12-22T11:26:25.379Z,101953.06
2018-12-22T11:32:37.709Z,101959.66
2018-12-22T11:35:23.443Z,101956.13
2018-12-22T11:38:27.508Z,101951.76
2018-12-22T11:41:43.269Z,101958.19
2018-12-22T11:55:15.877Z,101974.51
2018-12-22T12:02:09.549Z,101970.87
2018-12-22T12:11:48.417Z,101976.47
2018-12-22T12:21:43.587Z,101975.34
2018-12-22T12:28:08.884Z,101970.87
2018-12-22T12:31:01.424Z,101970.77
2018-12-22T12:44:05.749Z,102000.19
2018-12-22T13:04:32.151Z,102019.33
2018-12-22T13:21:50.626Z,102008.73
2018-12-22T13:35:16.823Z,102034.44
2018-12-22T14:16:41.195Z,102044.15
2018-12-22T14:37:22.104Z,102068.39
2018-12-22T14:40:11.547Z,102071.13
2018-12-22T15:07:54.262Z,102103.72
2018-12-22T15:11:09.888Z,102108.58
2018-12-22T15:17:40.184Z,102121.34
2018-12-22T15:27:41.061Z,102139.28
2018-12-22T15:41:15.387Z,102150.02
2018-12-22T15:44:09.912Z,102148.74
2018-12-22T16:08:00.979Z,102138.41
2018-12-22T16:10:51.017Z,102149.31
2018-12-22T16:16:57.482Z,102155.53
2018-12-22T16:19:52.031Z,102159.03
2018-12-22T16:26:14.439Z,102168.22
2018-12-22T16:32:44.100Z,102175.59
2018-12-22T16:42:47.810Z,102186.03
2018-12-22T16:45:25.118Z,102189.53
2018-12-22T16:48:27.773Z,102193.86
2018-12-22T16:54:39.753Z,102196.13
2018-12-22T17:03:10.436Z,102192.80
2018-12-22T17:13:10.612Z,102198.33
2018-12-22T17:19:40.416Z,102204.09
2018-12-22T17:22:35.225Z,102208.95
2018-12-22T17:35:44.771Z,102225.16
2018-12-22T17:38:41.020Z,102223.44
2018-12-22T17:48:15.894Z,102236.13
2018-12-22T17:51:05.787Z,102233.08
2018-12-22T18:25:34.853Z,102254.42
2018-12-22T18:35:38.711Z,102269.33
2018-12-22T18:53:00.871Z,102279.59
2018-12-22T19:10:14.983Z,102281.73
2018-12-22T19:13:09.645Z,102278.73
2018-12-22T19:23:03.532Z,102289.09
2018-12-22T19:32:59.744Z,102286.19
2018-12-22T19:46:48.333Z,102275.88
2018-12-22T19:49:51.105Z,102282.45
2018-12-22T19:56:07.337Z,102267.44
2018-12-22T19:58:53.251Z,102263.16
2018-12-22T20:01:32.795Z,102268.86
2018-12-22T20:04:11.577Z,102274.13
2018-12-22T20:10:29.351Z,102276.00
2018-12-22T20:20:25.576Z,102280.50
2018-12-22T20:26:59.254Z,102269.73
2018-12-22T20:29:58.030Z,102273.68
2018-12-22T20:43:15.682Z,102251.67
2018-12-22T20:46:12.213Z,102239.53
2018-12-22T20:56:03.503Z,102247.39
2018-12-22T21:02:17.910Z,102250.02
2018-12-22T21:05:07.820Z,102248.34
2018-12-22T21:15:18.310Z,102242.80
2018-12-22T21:21:38.449Z,102228.88
2018-12-22T21:24:07.060Z,102231.03
2018-12-22T21:26:36.757Z,102223.59
2018-12-22T21:29:05.371Z,102218.34
2018-12-22T21:31:34.032Z,102215.30
2018-12-22T21:34:03.871Z,102210.14
2018-12-22T21:36:32.605Z,102205.77
2018-12-22T21:39:01.220Z,102212.33
2018-12-22T21:41:29.859Z,102206.70
2018-12-22T21:43:58.532Z,102203.23
2018-12-22T21:46:27.156Z,102195.47
2018-12-22T21:48:55.822Z,102192.45
2018-12-22T21:51:24.480Z,102193.36
2018-12-22T21:53:53.169Z,102198.12
2018-12-22T21:56:21.859Z,102188.16
2018-12-22T21:58:50.780Z,102181.22
2018-12-22T22:01:19.364Z,102181.66
2018-12-22T22:03:48.001Z,102177.80
2018-12-22T22:06:16.876Z,102175.69
2018-12-22T22:08:45.564Z,102169.63
2018-12-22T22:11:14.756Z,102176.99
2018-12-22T22:13:43.540Z,102175.27
2018-12-22T22:16:12.214Z,102179.22
2018-12-22T22:18:41.373Z,102177.45
2018-12-22T22:21:10.291Z,102177.05
2018-12-22T22:23:39.043Z,102173.15
2018-12-22T22:26:07.769Z,102176.20
2018-12-22T22:28:36.588Z,102174.45
2018-12-22T22:31:05.265Z,102171.85
2018-12-22T22:33:33.940Z,102171.41
2018-12-22T22:36:03.340Z,102178.30
2018-12-22T22:38:32.217Z,102176.13
2018-12-22T22:41:00.948Z,102171.31
2018-12-22T22:43:29.716Z,102163.49
2018-12-22T22:45:58.448Z,102167.77
2018-12-22T22:48:27.062Z,102168.19
2018-12-22T22:50:55.832Z,102167.28
2018-12-22T22:53:24.541Z,102166.80
2018-12-22T22:55:53.440Z,102165.05
2018-12-22T22:58:22.221Z,102165.91
2018-12-22T23:00:50.957Z,102167.20
2018-12-22T23:03:19.616Z,102158.90
2018-12-22T23:05:48.275Z,102150.60
2018-12-22T23:08:17.029Z,102148.86
2018-12-22T23:10:46.087Z,102146.68
2018-12-22T23:13:14.708Z,102143.61
2018-12-22T23:15:43.457Z,102137.96
2018-12-22T23:18:12.112Z,102137.52
2018-12-22T23:20:40.738Z,102137.08
2018-12-22T23:23:10.241Z,102136.64
2018-12-22T23:25:38.995Z,102137.03
2018-12-22T23:28:07.747Z,102136.59
2018-12-22T23:30:36.491Z,102138.77
2018-12-22T23:33:05.174Z,102139.63
2018-12-22T23:35:33.964Z,102140.45
2018-12-22T23:38:02.695Z,102136.08
2018-12-22T23:40:31.383Z,102131.27
2018-12-22T23:43:00.207Z,102127.78
2018-12-22T23:45:28.944Z,102124.69
2018-12-22T23:47:57.596Z,102116.88
2018-12-22T23:50:26.814Z,102110.78
2018-12-22T23:52:56.044Z,102103.84
2018-12-22T23:55:24.753Z,102103.36
2018-12-22T23:57:53.380Z,102096.41
